Time;durP1;ratioP1;P1;durP2;ratioP2;P2;SDS_P1;SDS_P2;PMS_P1;PMS_P2;Temp;Humidity;BMP_temperature;BMP_pressure;BME280_temperature;BME280_humidity;BME280_pressure;Samples;Min_cycle;Max_cycle;Signal;HPM_P1;HPM_P2
2022/10/10 00:00:40;;;;;;;6.57;4.35;;;7.20;99.90;;;;;;4866927;29;20049;-83
2022/10/10 00:03:06;;;;;;;10.23;4.80;;;7.20;99.90;;;;;;4848856;29;20051;-83
2022/10/10 00:05:33;;;;;;;7.70;5.30;;;7.20;99.90;;;;;;4863329;29;20570;-83
2022/10/10 00:07:59;;;;;;;8.07;4.47;;;7.10;99.90;;;;;;4877853;29;20108;-83
2022/10/10 00:10:25;;;;;;;8.48;4.65;;;7.10;99.90;;;;;;4849261;29;20057;-84
2022/10/10 00:12:50;;;;;;;9.75;4.78;;;7.10;99.90;;;;;;4860045;29;20053;-83
2022/10/10 00:15:16;;;;;;;8.18;4.68;;;7.10;99.90;;;;;;4861094;29;20094;-83
2022/10/10 00:17:43;;;;;;;5.90;4.78;;;7.00;99.90;;;;;;4878376;29;20607;-85
2022/10/10 00:20:14;;;;;;;8.38;5.05;;;7.00;99.90;;;;;;4820834;29;20049;-83
2022/10/10 00:22:40;;;;;;;8.57;5.05;;;7.00;99.90;;;;;;4847811;29;20579;-84
2022/10/10 00:25:07;;;;;;;5.30;4.78;;;7.00;99.90;;;;;;4846429;29;20041;-83
2022/10/10 00:27:33;;;;;;;6.25;4.85;;;7.00;99.90;;;;;;4833754;29;20049;-84
2022/10/10 00:29:59;;;;;;;10.02;5.22;;;7.00;99.90;;;;;;4830936;29;20048;-83
2022/10/10 00:32:26;;;;;;;7.43;4.95;;;7.00;99.90;;;;;;4819136;29;20053;-83
2022/10/10 00:34:52;;;;;;;7.78;4.80;;;7.00;99.90;;;;;;4863214;29;20274;-83
2022/10/10 00:37:18;;;;;;;5.70;4.88;;;6.90;99.90;;;;;;4861910;29;20128;-83
2022/10/10 00:39:44;;;;;;;9.43;5.45;;;6.90;99.90;;;;;;4848685;29;21011;-83
2022/10/10 00:42:14;;;;;;;8.32;5.10;;;7.00;99.90;;;;;;4874710;29;20438;-83
2022/10/10 00:44:41;;;;;;;7.15;5.00;;;6.90;99.90;;;;;;4842416;29;20063;-84
2022/10/10 00:47:08;;;;;;;7.25;5.50;;;6.90;99.90;;;;;;4865140;29;20048;-83
2022/10/10 00:49:37;;;;;;;9.50;5.30;;;7.00;99.90;;;;;;4858762;29;20132;-83
2022/10/10 00:52:04;;;;;;;9.57;5.78;;;7.10;99.90;;;;;;4876351;29;20055;-83
2022/10/10 00:54:32;;;;;;;7.25;5.38;;;7.00;99.90;;;;;;4847048;29;20049;-83
2022/10/10 00:57:18;;;;;;;7.93;5.78;;;7.00;99.90;;;;;;4831967;29;20049;-84
2022/10/10 00:59:45;;;;;;;12.20;5.65;;;7.10;99.90;;;;;;4814164;29;20514;-84
2022/10/10 01:02:11;;;;;;;7.35;5.32;;;7.10;99.90;;;;;;4804727;29;20058;-83
2022/10/10 01:04:40;;;;;;;6.85;5.18;;;7.10;99.90;;;;;;4845257;29;20098;-84
2022/10/10 01:07:21;;;;;;;9.88;5.57;;;7.10;99.90;;;;;;4829135;29;20034;-84
2022/10/10 01:09:50;;;;;;;7.20;5.35;;;7.20;99.90;;;;;;4845714;29;20042;-84
2022/10/10 01:12:36;;;;;;;7.13;5.40;;;7.20;99.90;;;;;;4840782;29;20080;-84
2022/10/10 01:15:18;;;;;;;10.88;5.53;;;7.20;99.90;;;;;;4814619;29;20037;-84
2022/10/10 01:17:55;;;;;;;9.55;5.60;;;7.10;99.90;;;;;;4843934;29;20073;-84
2022/10/10 01:20:48;;;;;;;8.07;5.68;;;7.10;99.90;;;;;;4855709;29;20041;-84
2022/10/10 01:23:38;;;;;;;8.85;5.88;;;7.10;99.90;;;;;;4844983;29;20428;-83
2022/10/10 01:26:25;;;;;;;6.63;5.22;;;7.20;99.90;;;;;;4854419;29;20487;-84
2022/10/10 01:29:08;;;;;;;8.40;5.80;;;7.10;99.90;;;;;;4842368;29;20046;-83
2022/10/10 01:31:38;;;;;;;6.88;4.75;;;7.10;99.90;;;;;;4850407;29;20105;-84
2022/10/10 01:34:34;;;;;;;10.00;5.68;;;7.10;99.90;;;;;;4808329;29;20498;-84
2022/10/10 01:37:11;;;;;;;10.07;5.75;;;7.00;99.90;;;;;;4856547;29;20132;-83
2022/10/10 01:40:01;;;;;;;8.25;5.53;;;7.10;99.90;;;;;;4856405;29;20539;-84
2022/10/10 01:42:37;;;;;;;9.88;5.65;;;7.10;99.90;;;;;;4828093;29;20134;-83
2022/10/10 01:45:03;;;;;;;10.15;5.10;;;7.00;99.90;;;;;;4852888;29;20070;-84
2022/10/10 01:47:29;;;;;;;9.38;5.28;;;7.20;99.90;;;;;;4843558;29;20061;-84
2022/10/10 01:50:00;;;;;;;9.20;5.72;;;7.10;99.90;;;;;;4832653;29;20041;-83
2022/10/10 01:52:40;;;;;;;9.60;5.40;;;7.00;99.90;;;;;;4842881;29;20137;-84
2022/10/10 01:55:34;;;;;;;8.48;5.93;;;7.10;99.90;;;;;;4845113;29;20591;-84
2022/10/10 01:58:45;;;;;;;7.45;5.72;;;7.00;99.90;;;;;;4840110;29;20731;-84
2022/10/10 02:01:35;;;;;;;6.80;5.45;;;7.00;99.90;;;;;;4802551;29;20056;-84
2022/10/10 02:04:27;;;;;;;9.25;5.55;;;7.00;99.90;;;;;;4825535;29;20626;-84
2022/10/10 02:06:58;;;;;;;8.07;5.47;;;6.90;99.90;;;;;;4820575;29;20038;-84
2022/10/10 02:09:33;;;;;;;8.68;5.40;;;7.00;99.90;;;;;;4844576;29;20046;-84
2022/10/10 02:12:00;;;;;;;8.95;6.07;;;6.90;99.90;;;;;;4810211;29;20279;-84
2022/10/10 02:14:46;;;;;;;6.63;5.18;;;6.80;99.90;;;;;;4831322;29;20283;-84
2022/10/10 02:17:14;;;;;;;7.25;5.30;;;6.80;99.90;;;;;;4847095;29;20235;-83
2022/10/10 02:19:52;;;;;;;9.10;6.10;;;6.80;99.90;;;;;;4858941;29;20077;-84
2022/10/10 02:22:20;;;;;;;8.88;6.15;;;6.80;99.90;;;;;;4838563;29;20033;-85
2022/10/10 02:24:45;;;;;;;9.80;5.72;;;6.80;99.90;;;;;;4847612;29;20519;-83
2022/10/10 02:27:22;;;;;;;8.80;5.65;;;6.80;99.90;;;;;;4846957;29;20113;-84
2022/10/10 02:29:52;;;;;;;8.32;5.50;;;6.80;99.90;;;;;;4859097;29;20045;-84
2022/10/10 02:32:40;;;;;;;8.98;6.20;;;6.90;99.90;;;;;;4849054;29;20053;-84
2022/10/10 02:35:22;;;;;;;9.90;6.07;;;6.90;99.90;;;;;;4831819;29;20611;-85
2022/10/10 02:37:48;;;;;;;6.78;5.78;;;6.90;99.90;;;;;;4854596;29;20124;-84
2022/10/10 02:40:25;;;;;;;8.93;5.75;;;7.00;99.90;;;;;;4834614;29;20042;-84
2022/10/10 02:42:53;;;;;;;11.40;5.97;;;6.90;99.90;;;;;;4813084;29;20205;-84
2022/10/10 02:45:20;;;;;;;8.15;6.47;;;7.00;99.90;;;;;;4844496;29;20053;-84
2022/10/10 02:47:46;;;;;;;8.50;6.35;;;6.90;99.90;;;;;;4857667;29;20046;-84
2022/10/10 02:50:12;;;;;;;7.65;5.93;;;7.00;99.90;;;;;;4831148;29;20045;-84
2022/10/10 02:52:38;;;;;;;10.52;5.63;;;7.00;99.90;;;;;;4844984;29;20058;-84
2022/10/10 02:55:04;;;;;;;7.30;5.65;;;6.90;99.90;;;;;;4846169;29;20045;-84
2022/10/10 02:57:30;;;;;;;8.77;5.43;;;7.00;99.90;;;;;;4832833;29;20046;-84
2022/10/10 02:59:59;;;;;;;7.68;5.80;;;7.00;99.90;;;;;;4830960;29;20052;-84
2022/10/10 03:02:24;;;;;;;9.13;5.80;;;7.00;99.90;;;;;;4857358;29;20137;-84
2022/10/10 03:04:50;;;;;;;6.90;5.68;;;7.10;99.90;;;;;;4836409;29;20435;-84
2022/10/10 03:07:15;;;;;;;10.10;5.38;;;7.00;99.90;;;;;;4857702;29;20041;-84
2022/10/10 03:09:41;;;;;;;9.00;5.85;;;7.10;99.90;;;;;;4824628;29;20447;-84
2022/10/10 03:12:07;;;;;;;11.95;6.18;;;7.10;99.90;;;;;;4829211;29;20042;-84
2022/10/10 03:14:33;;;;;;;10.65;6.15;;;7.10;99.90;;;;;;4843999;29;20141;-84
2022/10/10 03:16:59;;;;;;;11.82;6.45;;;7.20;99.90;;;;;;4859054;29;20075;-85
2022/10/10 03:19:25;;;;;;;12.65;6.40;;;7.10;99.90;;;;;;4845545;29;20082;-84
2022/10/10 03:21:51;;;;;;;7.45;6.30;;;7.20;99.90;;;;;;4830287;29;20052;-84
2022/10/10 03:24:16;;;;;;;9.05;6.32;;;7.30;99.90;;;;;;4856308;29;20038;-85
2022/10/10 03:26:42;;;;;;;9.23;6.20;;;7.30;99.90;;;;;;4844771;29;20046;-84
2022/10/10 03:29:08;;;;;;;10.45;6.25;;;7.60;99.90;;;;;;4830614;29;20038;-85
2022/10/10 03:31:33;;;;;;;8.40;6.18;;;7.40;99.90;;;;;;4806340;29;20048;-84
2022/10/10 03:33:59;;;;;;;11.73;6.40;;;7.50;99.90;;;;;;4816760;29;20116;-84
2022/10/10 03:36:26;;;;;;;9.00;6.50;;;7.50;99.90;;;;;;4840938;29;20050;-85
2022/10/10 03:38:51;;;;;;;8.60;6.40;;;7.50;99.90;;;;;;4831085;29;20037;-84
2022/10/10 03:41:20;;;;;;;8.50;6.50;;;7.50;99.90;;;;;;4844358;29;20666;-85
2022/10/10 03:43:48;;;;;;;9.23;6.55;;;7.50;99.90;;;;;;4816038;29;20506;-84
2022/10/10 03:46:14;;;;;;;11.48;6.47;;;7.50;99.90;;;;;;4856460;29;20076;-85
2022/10/10 03:48:40;;;;;;;11.70;6.75;;;7.40;99.90;;;;;;4823889;29;20133;-84
2022/10/10 03:51:05;;;;;;;8.63;6.70;;;7.50;99.90;;;;;;4843972;29;20045;-84
2022/10/10 03:53:31;;;;;;;10.50;6.60;;;7.50;99.90;;;;;;4858230;29;20076;-85
2022/10/10 03:56:00;;;;;;;9.90;6.82;;;7.40;99.90;;;;;;4844598;29;20431;-85
2022/10/10 03:58:26;;;;;;;10.07;6.22;;;7.50;99.90;;;;;;4841506;29;20141;-85
2022/10/10 04:01:00;;;;;;;9.60;6.60;;;7.40;99.90;;;;;;4845664;29;20098;-85
2022/10/10 04:03:27;;;;;;;11.65;7.45;;;7.40;99.90;;;;;;4846945;29;20109;-85
2022/10/10 04:05:53;;;;;;;12.52;6.72;;;7.30;99.90;;;;;;4828027;29;20030;-85
2022/10/10 04:08:19;;;;;;;8.90;6.47;;;7.30;99.90;;;;;;4824714;29;20030;-84
2022/10/10 04:10:53;;;;;;;8.80;6.45;;;7.30;99.90;;;;;;4827922;29;20038;-85
2022/10/10 04:13:24;;;;;;;9.30;6.32;;;7.30;99.90;;;;;;4859895;29;20506;-85
2022/10/10 04:15:54;;;;;;;12.50;6.82;;;7.20;99.90;;;;;;4844153;29;20076;-84
2022/10/10 04:18:21;;;;;;;9.57;6.90;;;7.30;99.90;;;;;;4845348;29;20440;-85
2022/10/10 04:20:47;;;;;;;9.80;7.15;;;7.20;99.90;;;;;;4830494;29;20042;-84
2022/10/10 04:23:13;;;;;;;10.88;7.00;;;7.20;99.90;;;;;;4823299;29;20080;-85
2022/10/10 04:25:39;;;;;;;10.10;6.82;;;7.30;99.90;;;;;;4843043;29;20045;-85
2022/10/10 04:28:04;;;;;;;8.55;6.80;;;7.20;99.90;;;;;;4858188;29;20049;-85
2022/10/10 04:30:33;;;;;;;9.13;6.60;;;7.20;99.90;;;;;;4856358;29;20046;-85
2022/10/10 04:32:58;;;;;;;11.52;7.25;;;7.10;99.90;;;;;;4844796;29;20141;-85
2022/10/10 04:35:24;;;;;;;10.48;7.30;;;7.10;99.90;;;;;;4816003;29;20497;-84
2022/10/10 04:37:50;;;;;;;9.77;7.32;;;7.10;99.90;;;;;;4842377;29;20049;-85
2022/10/10 04:40:15;;;;;;;12.15;7.50;;;7.10;99.90;;;;;;4842023;29;20042;-85
2022/10/10 04:42:41;;;;;;;11.25;7.20;;;7.00;99.90;;;;;;4827349;29;20034;-84
2022/10/10 04:45:08;;;;;;;9.10;6.82;;;7.00;99.90;;;;;;4842105;29;20157;-85
2022/10/10 04:47:33;;;;;;;12.82;7.70;;;7.00;99.90;;;;;;4814929;29;20163;-85
2022/10/10 04:49:59;;;;;;;9.95;7.05;;;7.10;99.90;;;;;;4827703;29;20449;-85
2022/10/10 04:52:25;;;;;;;13.77;7.93;;;7.10;99.90;;;;;;4856791;29;20647;-85
2022/10/10 04:54:50;;;;;;;9.75;7.00;;;7.00;99.90;;;;;;4845649;29;20060;-85
2022/10/10 04:57:16;;;;;;;12.85;7.28;;;7.00;99.90;;;;;;4842993;29;20050;-85
2022/10/10 04:59:42;;;;;;;11.77;7.47;;;7.00;99.90;;;;;;4812484;29;20073;-85
2022/10/10 05:02:09;;;;;;;12.00;7.70;;;7.00;99.90;;;;;;4826818;29;20911;-85
2022/10/10 05:04:34;;;;;;;11.82;7.60;;;7.10;99.90;;;;;;4830660;29;20049;-85
2022/10/10 05:07:00;;;;;;;10.75;7.32;;;7.00;99.90;;;;;;4842226;29;20038;-85
2022/10/10 05:09:26;;;;;;;11.70;7.60;;;6.90;99.90;;;;;;4843897;29;20045;-85
2022/10/10 05:11:51;;;;;;;12.95;7.70;;;7.00;99.90;;;;;;4844755;29;20105;-85
2022/10/10 05:14:17;;;;;;;12.20;7.82;;;7.00;99.90;;;;;;4831631;29;20482;-84
2022/10/10 05:16:43;;;;;;;14.55;7.90;;;7.10;99.90;;;;;;4832033;29;20133;-85
2022/10/10 05:19:11;;;;;;;12.18;8.27;;;7.10;99.90;;;;;;4844941;29;20129;-85
2022/10/10 05:21:37;;;;;;;9.70;6.85;;;7.00;99.90;;;;;;4841655;29;20045;-84
2022/10/10 05:24:03;;;;;;;9.02;6.90;;;7.10;99.90;;;;;;4851749;29;20122;-85
2022/10/10 05:26:28;;;;;;;11.75;6.88;;;7.00;99.90;;;;;;4823438;29;20038;-84
2022/10/10 05:28:54;;;;;;;9.00;6.70;;;7.00;99.90;;;;;;4856164;29;20038;-85
2022/10/10 05:31:20;;;;;;;13.43;7.30;;;7.00;99.90;;;;;;4856631;29;20038;-85
2022/10/10 05:33:45;;;;;;;9.32;6.53;;;7.00;99.90;;;;;;4842120;29;20057;-84
2022/10/10 05:36:12;;;;;;;9.98;7.18;;;7.00;99.90;;;;;;4811021;29;20519;-85
2022/10/10 05:38:39;;;;;;;11.18;6.97;;;7.10;99.90;;;;;;4822912;29;20054;-85
2022/10/10 05:41:06;;;;;;;9.98;6.78;;;7.10;99.90;;;;;;4827870;29;20037;-84
2022/10/10 05:43:32;;;;;;;9.35;7.13;;;7.10;99.90;;;;;;4847989;29;20041;-85
2022/10/10 05:45:57;;;;;;;10.93;7.57;;;7.00;99.90;;;;;;4842061;29;20109;-85
2022/10/10 05:48:23;;;;;;;10.32;7.63;;;7.00;99.90;;;;;;4846057;29;20073;-85
2022/10/10 05:50:53;;;;;;;13.02;7.75;;;7.00;99.90;;;;;;4857864;29;20385;-85
2022/10/10 05:53:20;;;;;;;11.38;7.32;;;7.00;99.90;;;;;;4841798;29;20422;-85
2022/10/10 05:55:45;;;;;;;11.65;7.65;;;7.20;99.90;;;;;;4827473;29;20038;-85
2022/10/10 05:58:15;;;;;;;11.73;7.35;;;7.10;99.90;;;;;;4845628;29;20054;-85
2022/10/10 06:00:42;;;;;;;11.30;8.05;;;7.00;99.90;;;;;;4835297;29;20065;-85
2022/10/10 06:03:12;;;;;;;12.55;8.02;;;7.10;99.90;;;;;;4842905;29;20056;-85
2022/10/10 06:05:39;;;;;;;12.38;7.63;;;7.20;99.90;;;;;;4835059;29;20063;-85
2022/10/10 06:08:05;;;;;;;12.07;7.70;;;7.10;99.90;;;;;;4842822;29;20034;-84
2022/10/10 06:10:36;;;;;;;11.52;7.68;;;7.20;99.90;;;;;;4796106;29;20438;-85
2022/10/10 06:13:02;;;;;;;11.60;7.40;;;7.20;99.90;;;;;;4861788;29;20064;-85
2022/10/10 06:15:27;;;;;;;11.23;7.57;;;7.20;99.90;;;;;;4855114;29;20042;-85
2022/10/10 06:17:53;;;;;;;13.63;7.93;;;7.30;99.90;;;;;;4825009;29;20042;-84
2022/10/10 06:20:19;;;;;;;12.43;8.20;;;7.30;99.90;;;;;;4843450;29;20046;-85
2022/10/10 06:22:44;;;;;;;14.70;8.40;;;7.30;99.90;;;;;;4810159;29;20573;-85
2022/10/10 06:25:10;;;;;;;12.00;7.90;;;7.40;99.90;;;;;;4857143;29;20140;-85
2022/10/10 06:27:36;;;;;;;9.90;7.90;;;7.40;99.90;;;;;;4819462;29;20521;-84
2022/10/10 06:30:02;;;;;;;13.20;8.30;;;7.50;99.90;;;;;;4839712;29;20045;-85
2022/10/10 06:32:31;;;;;;;11.90;7.18;;;7.50;99.90;;;;;;4821988;29;20050;-85
2022/10/10 06:34:57;;;;;;;12.73;8.18;;;7.50;99.90;;;;;;4823946;29;20057;-85
2022/10/10 06:37:23;;;;;;;11.07;7.55;;;7.50;99.90;;;;;;4855650;29;20484;-85
2022/10/10 06:39:50;;;;;;;10.95;7.82;;;7.60;99.90;;;;;;4844321;29;20050;-85
2022/10/10 06:42:16;;;;;;;15.57;8.48;;;7.60;99.90;;;;;;4808631;29;20519;-85
2022/10/10 06:44:41;;;;;;;11.98;8.20;;;7.60;99.90;;;;;;4839351;29;20050;-85
2022/10/10 06:47:09;;;;;;;10.55;7.75;;;7.70;99.90;;;;;;4840847;29;20038;-85
2022/10/10 06:49:35;;;;;;;11.68;8.13;;;7.90;99.90;;;;;;4843913;29;20117;-85
2022/10/10 06:52:00;;;;;;;11.75;8.23;;;7.90;99.90;;;;;;4844328;29;20045;-85
2022/10/10 06:54:26;;;;;;;12.07;8.02;;;8.00;99.90;;;;;;4857357;29;20075;-85
2022/10/10 06:56:52;;;;;;;11.13;7.60;;;8.10;99.90;;;;;;4842583;29;20049;-85
2022/10/10 06:59:17;;;;;;;11.63;7.63;;;8.20;99.90;;;;;;4850639;29;20046;-84
2022/10/10 07:01:43;;;;;;;12.15;7.88;;;8.30;99.90;;;;;;4860816;29;20058;-85
2022/10/10 07:04:10;;;;;;;13.38;8.23;;;8.40;99.90;;;;;;4849366;29;20133;-85
2022/10/10 07:06:37;;;;;;;12.15;7.88;;;8.50;99.90;;;;;;4829868;29;20041;-85
2022/10/10 07:09:02;;;;;;;12.32;7.85;;;8.50;99.90;;;;;;4829998;29;20367;-85
2022/10/10 07:11:31;;;;;;;11.65;7.93;;;8.70;99.90;;;;;;4844480;29;20052;-86
2022/10/10 07:13:57;;;;;;;11.45;7.65;;;8.70;99.90;;;;;;4833120;29;20068;-84
2022/10/10 07:16:23;;;;;;;11.15;7.18;;;8.80;99.90;;;;;;4829175;29;20426;-85
2022/10/10 07:18:48;;;;;;;13.35;7.30;;;8.80;99.90;;;;;;4856304;29;20138;-85
2022/10/10 07:21:14;;;;;;;14.88;7.95;;;8.90;99.90;;;;;;4843242;29;20045;-85
2022/10/10 07:23:43;;;;;;;10.10;6.97;;;9.00;99.90;;;;;;4849064;29;20056;-86
2022/10/10 07:26:14;;;;;;;11.20;7.18;;;9.10;99.90;;;;;;4832541;29;20037;-85
2022/10/10 07:28:40;;;;;;;11.75;7.63;;;9.10;99.90;;;;;;4860845;29;20469;-86
2022/10/10 07:31:08;;;;;;;11.63;7.70;;;9.20;99.90;;;;;;4830139;29;20116;-85
2022/10/10 07:33:43;;;;;;;9.88;7.10;;;9.10;99.90;;;;;;4859693;29;20434;-85
2022/10/10 07:36:14;;;;;;;11.38;7.60;;;9.10;99.90;;;;;;4826267;29;20126;-85
2022/10/10 07:38:40;;;;;;;12.23;7.78;;;9.20;99.90;;;;;;4857207;29;20038;-86
2022/10/10 07:41:12;;;;;;;12.63;8.48;;;9.30;99.90;;;;;;4840700;29;20050;-85
2022/10/10 07:43:38;;;;;;;11.77;8.13;;;9.40;99.90;;;;;;4842485;29;20045;-85
2022/10/10 07:46:13;;;;;;;11.48;7.63;;;9.50;99.90;;;;;;4810438;29;20045;-85
2022/10/10 07:48:39;;;;;;;10.55;7.80;;;9.60;99.90;;;;;;4844000;29;20449;-85
2022/10/10 07:51:17;;;;;;;10.40;7.10;;;9.70;99.90;;;;;;4841810;29;20508;-86
2022/10/10 07:53:43;;;;;;;13.07;7.85;;;9.80;99.90;;;;;;4844952;29;20133;-85
2022/10/10 07:56:10;;;;;;;9.82;7.05;;;9.80;99.90;;;;;;4844096;29;20133;-85
2022/10/10 07:58:36;;;;;;;10.13;7.40;;;9.90;99.90;;;;;;4857087;29;20223;-85
2022/10/10 08:01:11;;;;;;;11.95;7.22;;;10.00;99.90;;;;;;4842224;29;20064;-85
2022/10/10 08:03:38;;;;;;;10.73;7.65;;;10.20;99.90;;;;;;4831005;29;20133;-85
2022/10/10 08:06:09;;;;;;;11.50;7.43;;;10.40;99.90;;;;;;4841926;29;20050;-85
2022/10/10 08:08:37;;;;;;;12.07;7.38;;;10.60;99.90;;;;;;4843370;29;20045;-85
2022/10/10 08:11:11;;;;;;;10.50;7.70;;;10.70;99.90;;;;;;4829690;29;20283;-85
2022/10/10 08:13:38;;;;;;;11.10;7.30;;;10.70;99.90;;;;;;4809867;29;20063;-85
2022/10/10 08:16:07;;;;;;;10.77;8.07;;;10.80;99.90;;;;;;4841800;29;20038;-85
2022/10/10 08:18:33;;;;;;;14.13;7.20;;;11.00;99.90;;;;;;4842677;29;20553;-85
2022/10/10 08:21:06;;;;;;;11.23;7.38;;;11.00;99.90;;;;;;4829834;29;20049;-85
2022/10/10 08:23:32;;;;;;;12.82;7.43;;;11.20;99.90;;;;;;4829035;29;20041;-85
2022/10/10 08:25:59;;;;;;;12.85;7.50;;;11.50;99.90;;;;;;4857107;29;20110;-86
2022/10/10 08:28:25;;;;;;;11.18;7.60;;;11.60;99.90;;;;;;4832114;29;20054;-85
2022/10/10 08:30:54;;;;;;;13.40;6.93;;;11.80;99.90;;;;;;4856431;29;20458;-85
2022/10/10 08:33:20;;;;;;;10.80;7.00;;;11.80;99.90;;;;;;4859750;29;20058;-85
2022/10/10 08:35:50;;;;;;;14.18;6.88;;;11.80;98.80;;;;;;4812512;29;20039;-85
2022/10/10 08:38:15;;;;;;;10.68;6.68;;;12.10;99.90;;;;;;4825586;29;20157;-86
2022/10/10 08:40:49;;;;;;;11.48;7.03;;;12.30;12.00;;;;;;4855246;29;20148;-85
2022/10/10 08:43:27;;;;;;;10.43;6.57;;;12.40;54.10;;;;;;4830327;29;20046;-85
2022/10/10 08:46:09;;;;;;;10.05;7.03;;;12.40;99.90;;;;;;4833087;29;20155;-86
2022/10/10 08:48:37;;;;;;;9.98;6.32;;;12.50;99.90;;;;;;4841379;29;20050;-85
2022/10/10 08:51:11;;;;;;;9.68;6.78;;;12.50;99.90;;;;;;4841333;29;20584;-85
2022/10/10 08:53:45;;;;;;;12.43;7.35;;;12.60;99.90;;;;;;4815175;29;20045;-85
2022/10/10 08:56:17;;;;;;;11.55;6.90;;;12.60;1.00;;;;;;4842984;29;20069;-85
2022/10/10 08:58:51;;;;;;;12.10;6.95;;;12.60;1.00;;;;;;4842840;29;20038;-87
2022/10/10 09:01:24;;;;;;;12.32;6.97;;;12.70;99.90;;;;;;4824745;29;20124;-86
2022/10/10 09:03:54;;;;;;;9.10;6.38;;;12.70;1.00;;;;;;4842150;29;20050;-86
2022/10/10 09:06:55;;;;;;;14.45;7.38;;;12.70;99.90;;;;;;4858085;29;20505;-86
2022/10/10 09:09:49;;;;;;;10.52;7.20;;;12.70;1.00;;;;;;4832513;29;20383;-86
2022/10/10 09:12:26;;;;;;;12.30;6.75;;;12.60;1.00;;;;;;4844578;29;20057;-86
2022/10/10 09:14:59;;;;;;;9.02;6.32;;;12.80;99.90;;;;;;4837461;29;20596;-85
2022/10/10 09:17:47;;;;;;;11.45;7.28;;;12.80;99.90;;;;;;4857228;29;20502;-86
2022/10/10 09:20:41;;;;;;;12.60;7.72;;;13.10;99.90;;;;;;4823633;29;20041;-86
2022/10/10 09:23:25;;;;;;;9.07;6.47;;;13.10;1.00;;;;;;4856462;29;20420;-86
2022/10/10 09:26:20;;;;;;;10.98;6.63;;;13.20;1.00;;;;;;4828510;29;20053;-86
2022/10/10 09:28:51;;;;;;;8.63;6.60;;;13.50;19.30;;;;;;4840131;29;20050;-86
2022/10/10 09:31:41;;;;;;;11.20;6.55;;;13.70;99.90;;;;;;4840164;29;20091;-85
2022/10/10 09:34:18;;;;;;;10.50;7.28;;;13.60;99.90;;;;;;4858007;29;20155;-87
2022/10/10 09:36:47;;;;;;;12.63;7.32;;;13.70;1.00;;;;;;4829797;29;20049;-85
2022/10/10 09:39:31;;;;;;;11.95;6.53;;;13.60;99.90;;;;;;4815417;29;20105;-86
2022/10/10 09:42:08;;;;;;;12.90;7.25;;;13.70;99.90;;;;;;4847098;29;20120;-86
2022/10/10 09:44:33;;;;;;;10.50;6.40;;;13.90;99.90;;;;;;4851413;29;20041;-85
2022/10/10 09:46:59;;;;;;;11.70;8.05;;;13.90;99.90;;;;;;4860941;29;20378;-86
2022/10/10 09:49:25;;;;;;;12.05;7.45;;;13.90;99.90;;;;;;4859807;29;20076;-86
2022/10/10 09:52:00;;;;;;;15.55;7.60;;;13.90;99.90;;;;;;4826395;29;20497;-85
2022/10/10 09:54:27;;;;;;;;;;;14.00;1.00;;;;;;4843019;29;20137;-86
2022/10/10 09:56:55;;;;;;;10.68;6.85;;;14.00;99.90;;;;;;4821535;29;19963;-86
2022/10/10 09:59:38;;;;;;;8.80;6.75;;;14.00;99.90;;;;;;4832119;29;20070;-86
2022/10/10 10:02:25;;;;;;;14.48;7.32;;;14.00;1.00;;;;;;4833095;29;20053;-86
2022/10/10 10:04:51;;;;;;;11.40;7.65;;;14.10;1.00;;;;;;4827592;29;20042;-86
2022/10/10 10:07:30;;;;;;;12.30;7.32;;;14.10;99.90;;;;;;4815327;29;20046;-86
2022/10/10 10:10:03;;;;;;;10.75;7.35;;;14.10;99.90;;;;;;4841044;29;20053;-86
2022/10/10 10:12:43;;;;;;;12.13;7.25;;;14.20;1.00;;;;;;4839998;29;20086;-85
2022/10/10 10:15:24;;;;;;;11.25;6.93;;;14.30;99.90;;;;;;4840646;29;20068;-86
2022/10/10 10:18:29;;;;;;;10.35;7.32;;;14.20;28.00;;;;;;4858340;29;20152;-86
2022/10/10 10:24:49;;;;;;;10.65;7.18;;;14.80;99.90;;;;;;4844164;29;20049;-86
2022/10/10 10:27:18;;;;;;;15.30;7.40;;;15.10;99.90;;;;;;4812046;29;20222;-86
2022/10/10 10:30:00;;;;;;;13.63;7.63;;;15.50;1.00;;;;;;4836690;29;20049;-86
2022/10/10 10:33:06;;;;;;;11.98;6.93;;;15.60;99.90;;;;;;4842192;29;20461;-86
2022/10/10 10:35:46;;;;;;;11.65;7.05;;;15.70;1.00;;;;;;4833343;29;20466;-85
2022/10/10 10:39:05;;;;;;;13.52;6.82;;;15.80;1.00;;;;;;4845890;29;20042;-86
2022/10/10 10:41:43;;;;;;;8.95;5.88;;;15.80;99.90;;;;;;4860213;29;20057;-86
2022/10/10 10:44:40;;;;;;;10.80;6.57;;;16.10;1.00;;;;;;4860582;29;20050;-86
2022/10/10 10:47:51;;;;;;;12.18;6.93;;;16.10;99.90;;;;;;4849596;29;20324;-86
2022/10/10 10:51:00;;;;;;;13.23;6.47;;;16.30;99.90;;;;;;4845978;29;20454;-86
2022/10/10 10:54:12;;;;;;;9.88;6.07;;;16.10;99.90;;;;;;4831474;29;20513;-86
2022/10/10 10:57:00;;;;;;;11.02;6.47;;;16.20;99.90;;;;;;4860068;29;20052;-88
2022/10/10 11:00:06;;;;;;;10.50;5.68;;;16.20;1.00;;;;;;4826663;29;20037;-86
2022/10/10 11:02:56;;;;;;;8.60;6.10;;;16.00;1.00;;;;;;4837034;29;20122;-87
2022/10/10 11:06:00;;;;;;;10.00;5.88;;;16.20;1.00;;;;;;4831349;29;20061;-86
2022/10/10 11:08:49;;;;;;;11.38;6.30;;;16.60;99.90;;;;;;4846014;29;20396;-86
2022/10/10 11:11:26;;;;;;;9.85;6.30;;;16.50;99.90;;;;;;4835416;29;20100;-86
2022/10/10 11:14:06;;;;;;;12.30;6.05;;;16.30;96.10;;;;;;4840439;29;20512;-87
2022/10/10 11:17:04;;;;;;;12.50;6.70;;;16.10;99.90;;;;;;4832833;29;20087;-87
2022/10/10 11:19:55;;;;;;;9.77;6.25;;;16.00;1.00;;;;;;4832668;29;20054;-87
2022/10/10 11:22:38;;;;;;;10.85;6.05;;;15.70;99.90;;;;;;4859698;29;20497;-86
2022/10/10 11:25:25;;;;;;;11.07;5.90;;;15.60;99.90;;;;;;4849422;29;20056;-87
2022/10/10 11:28:14;;;;;;;10.35;5.80;;;15.40;1.00;;;;;;4816127;29;20069;-86
2022/10/10 11:30:50;;;;;;;15.23;5.80;;;15.30;1.00;;;;;;4827283;29;20054;-87
2022/10/10 11:33:37;;;;;;;10.57;5.93;;;15.10;83.40;;;;;;4846524;29;20133;-86
2022/10/10 11:36:24;;;;;;;10.55;5.93;;;15.00;92.40;;;;;;4830520;29;20465;-87
2022/10/10 11:39:13;;;;;;;8.07;5.35;;;14.90;1.00;;;;;;4813864;29;20502;-86
2022/10/10 11:41:54;;;;;;;8.02;5.47;;;14.80;69.80;;;;;;4821898;29;20065;-87
2022/10/10 11:45:02;;;;;;;9.13;5.97;;;14.70;99.90;;;;;;4834980;29;20396;-86
2022/10/10 11:47:41;;;;;;;10.30;5.65;;;14.60;99.90;;;;;;4807093;29;20920;-88
2022/10/10 11:50:33;;;;;;;10.82;6.93;;;14.50;1.00;;;;;;4845418;29;20052;-87
2022/10/10 11:53:21;;;;;;;9.98;7.07;;;14.40;99.90;;;;;;4835112;29;20065;-87
2022/10/10 11:55:59;;;;;;;12.48;6.80;;;14.30;99.90;;;;;;4820279;29;20057;-87
2022/10/10 11:58:52;;;;;;;13.38;7.07;;;14.30;99.90;;;;;;4836149;29;20417;-86
2022/10/10 12:01:30;;;;;;;10.27;6.82;;;14.20;99.90;;;;;;4849420;29;20052;-86
2022/10/10 12:04:05;;;;;;;15.88;6.75;;;14.40;99.90;;;;;;4850574;29;20566;-86
2022/10/10 12:06:45;;;;;;;13.27;7.53;;;14.40;99.90;;;;;;4818862;29;20049;-86
2022/10/10 12:09:35;;;;;;;14.77;7.60;;;14.40;99.90;;;;;;4843400;29;20045;-86
2022/10/10 12:12:39;;;;;;;11.77;7.18;;;14.40;99.90;;;;;;4856710;29;20053;-86
2022/10/10 12:15:13;;;;;;;9.60;7.30;;;14.20;99.90;;;;;;4817001;29;20075;-86
2022/10/10 12:17:45;;;;;;;15.55;8.43;;;14.40;99.90;;;;;;4840107;29;20057;-87
2022/10/10 12:20:31;;;;;;;13.30;7.35;;;14.40;99.90;;;;;;4828382;29;20179;-86
2022/10/10 12:23:12;;;;;;;14.43;8.20;;;14.40;99.90;;;;;;4845186;29;20873;-86
2022/10/10 12:25:41;;;;;;;14.32;8.18;;;14.40;99.90;;;;;;4817249;29;20046;-87
2022/10/10 12:28:15;;;;;;;13.65;7.90;;;14.50;99.90;;;;;;4833455;29;20042;-86
2022/10/10 12:30:53;;;;;;;11.60;7.57;;;14.60;99.90;;;;;;4829313;29;20050;-86
2022/10/10 12:33:40;;;;;;;12.35;8.75;;;14.60;99.90;;;;;;4834999;29;20082;-86
2022/10/10 12:36:18;;;;;;;14.50;9.13;;;14.60;99.90;;;;;;4817025;29;20148;-86
2022/10/10 12:39:04;;;;;;;12.93;8.27;;;14.60;99.90;;;;;;4857174;29;20038;-86
2022/10/10 12:41:49;;;;;;;13.85;8.27;;;14.70;99.90;;;;;;4849445;29;20038;-86
2022/10/10 12:44:25;;;;;;;13.60;8.40;;;14.60;99.90;;;;;;4857394;29;20317;-86
2022/10/10 12:47:09;;;;;;;16.35;8.63;;;14.50;99.90;;;;;;4858290;29;20418;-86
2022/10/10 12:49:35;;;;;;;15.68;8.55;;;14.40;99.90;;;;;;4846077;29;20481;-86
2022/10/10 12:52:17;;;;;;;11.43;8.63;;;14.40;99.90;;;;;;4847972;29;20050;-88
2022/10/10 12:54:44;;;;;;;14.63;9.43;;;14.50;99.90;;;;;;4847285;29;20050;-88
2022/10/10 12:57:31;;;;;;;14.02;8.85;;;14.50;99.90;;;;;;4830506;29;20113;-87
2022/10/10 13:00:23;;;;;;;12.25;8.13;;;14.50;99.90;;;;;;4841843;29;20102;-87
2022/10/10 13:03:00;;;;;;;12.20;8.50;;;14.60;99.90;;;;;;4813077;29;20136;-87
2022/10/10 13:05:38;;;;;;;13.57;9.23;;;14.40;99.90;;;;;;4812571;29;20117;-87
2022/10/10 13:08:12;;;;;;;18.23;10.02;;;14.50;99.90;;;;;;4801551;29;20030;-89
2022/10/10 13:10:38;;;;;;;14.98;9.35;;;14.50;99.90;;;;;;4801203;29;20069;-88
2022/10/10 13:13:17;;;;;;;15.55;9.15;;;14.40;99.90;;;;;;4803652;29;20046;-88
2022/10/10 13:15:55;;;;;;;14.32;9.07;;;14.50;99.90;;;;;;4824223;29;20117;-88
2022/10/10 13:18:40;;;;;;;13.23;9.23;;;14.50;99.90;;;;;;4821139;29;20054;-88
2022/10/10 13:21:13;;;;;;;;;;;14.40;99.90;;;;;;4813866;29;20068;-88
2022/10/10 13:23:45;;;;;;;16.15;9.23;;;14.40;99.90;;;;;;4808520;29;19925;-88